sensor_id;sensor_type;location;lat;lon;timestamp;pressure;altitude;pressure_sealevel;temperature;humidity
64717;BME280;51146;50.274;19.000;2022-09-21T00:03:31;98841.38;;;8.36;62.91
64717;BME280;51146;50.274;19.000;2022-09-21T00:06:05;98834.69;;;8.29;62.94
64717;BME280;51146;50.274;19.000;2022-09-21T00:08:32;98840.44;;;8.23;63.24
64717;BME280;51146;50.274;19.000;2022-09-21T00:10:59;98830.91;;;8.18;63.24
64717;BME280;51146;50.274;19.000;2022-09-21T00:13:26;98833.91;;;8.13;62.93
64717;BME280;51146;50.274;19.000;2022-09-21T00:15:56;98836.25;;;8.05;63.36
64717;BME280;51146;50.274;19.000;2022-09-21T00:18:24;98835.75;;;7.98;63.43
64717;BME280;51146;50.274;19.000;2022-09-21T00:20:51;98833.44;;;7.92;63.42
64717;BME280;51146;50.274;19.000;2022-09-21T00:23:18;98835.53;;;7.87;63.62
64717;BME280;51146;50.274;19.000;2022-09-21T00:25:45;98840.34;;;7.82;63.71
64717;BME280;51146;50.274;19.000;2022-09-21T00:28:12;98839.59;;;7.80;63.81
64717;BME280;51146;50.274;19.000;2022-09-21T00:30:39;98846.88;;;7.77;63.49
64717;BME280;51146;50.274;19.000;2022-09-21T00:33:06;98847.81;;;7.76;63.89
64717;BME280;51146;50.274;19.000;2022-09-21T00:35:33;98848.00;;;7.73;63.91
64717;BME280;51146;50.274;19.000;2022-09-21T00:38:01;98845.63;;;7.69;63.96
64717;BME280;51146;50.274;19.000;2022-09-21T00:40:28;98844.84;;;7.67;63.83
64717;BME280;51146;50.274;19.000;2022-09-21T00:43:15;98846.00;;;7.63;64.04
64717;BME280;51146;50.274;19.000;2022-09-21T00:45:44;98847.91;;;7.61;63.96
64717;BME280;51146;50.274;19.000;2022-09-21T00:48:13;98849.72;;;7.60;64.34
64717;BME280;51146;50.274;19.000;2022-09-21T00:50:46;98852.53;;;7.58;64.33
64717;BME280;51146;50.274;19.000;2022-09-21T00:53:14;98856.06;;;7.59;64.66
64717;BME280;51146;50.274;19.000;2022-09-21T00:55:48;98855.88;;;7.62;64.81
64717;BME280;51146;50.274;19.000;2022-09-21T00:58:22;98858.38;;;7.65;65.10
64717;BME280;51146;50.274;19.000;2022-09-21T01:00:51;98854.44;;;7.71;65.06
64717;BME280;51146;50.274;19.000;2022-09-21T01:03:18;98856.97;;;7.74;64.78
64717;BME280;51146;50.274;19.000;2022-09-21T01:05:45;98859.34;;;7.78;65.13
64717;BME280;51146;50.274;19.000;2022-09-21T01:08:12;98856.47;;;7.82;65.04
64717;BME280;51146;50.274;19.000;2022-09-21T01:13:50;98860.78;;;7.84;64.98
64717;BME280;51146;50.274;19.000;2022-09-21T01:25:03;98864.78;;;7.93;64.84
64717;BME280;51146;50.274;19.000;2022-09-21T01:30:16;98861.41;;;7.89;64.91
64717;BME280;51146;50.274;19.000;2022-09-21T01:32:54;98863.88;;;7.92;64.98
64717;BME280;51146;50.274;19.000;2022-09-21T01:35:29;98864.78;;;7.93;64.96
64717;BME280;51146;50.274;19.000;2022-09-21T01:38:11;98869.00;;;7.97;65.01
64717;BME280;51146;50.274;19.000;2022-09-21T01:40:43;98861.88;;;7.96;64.89
64717;BME280;51146;50.274;19.000;2022-09-21T01:43:14;98861.88;;;7.96;64.92
64717;BME280;51146;50.274;19.000;2022-09-21T01:45:48;98857.47;;;7.95;64.88
64717;BME280;51146;50.274;19.000;2022-09-21T01:48:17;98862.19;;;7.91;64.98
64717;BME280;51146;50.274;19.000;2022-09-21T01:50:53;98870.94;;;7.95;65.05
64717;BME280;51146;50.274;19.000;2022-09-21T01:53:27;98874.38;;;7.97;65.06
64717;BME280;51146;50.274;19.000;2022-09-21T01:56:05;98869.84;;;7.98;64.93
64717;BME280;51146;50.274;19.000;2022-09-21T01:58:43;98876.84;;;8.00;64.84
64717;BME280;51146;50.274;19.000;2022-09-21T02:01:15;98869.47;;;8.04;64.71
64717;BME280;51146;50.274;19.000;2022-09-21T02:03:54;98870.22;;;8.06;64.88
64717;BME280;51146;50.274;19.000;2022-09-21T02:06:24;98872.91;;;8.06;64.55
64717;BME280;51146;50.274;19.000;2022-09-21T02:08:53;98873.81;;;8.06;64.60
64717;BME280;51146;50.274;19.000;2022-09-21T02:11:20;98883.41;;;8.10;64.72
64717;BME280;51146;50.274;19.000;2022-09-21T02:13:49;98884.28;;;8.11;64.72
64717;BME280;51146;50.274;19.000;2022-09-21T02:16:29;98880.81;;;8.09;64.59
64717;BME280;51146;50.274;19.000;2022-09-21T02:22:32;98884.09;;;8.14;64.56
64717;BME280;51146;50.274;19.000;2022-09-21T02:25:09;98875.34;;;8.10;64.50
64717;BME280;51146;50.274;19.000;2022-09-21T02:30:21;98883.31;;;8.12;64.35
64717;BME280;51146;50.274;19.000;2022-09-21T02:33:09;98872.44;;;8.13;64.42
64717;BME280;51146;50.274;19.000;2022-09-21T02:43:40;98886.97;;;8.11;64.36
64717;BME280;51146;50.274;19.000;2022-09-21T02:46:17;98884.09;;;8.14;64.23
64717;BME280;51146;50.274;19.000;2022-09-21T02:48:52;98887.53;;;8.16;64.37
64717;BME280;51146;50.274;19.000;2022-09-21T02:51:26;98895.78;;;8.13;64.28
64717;BME280;51146;50.274;19.000;2022-09-21T02:53:55;98893.09;;;8.13;64.13
64717;BME280;51146;50.274;19.000;2022-09-21T02:56:24;98892.16;;;8.14;64.38
64717;BME280;51146;50.274;19.000;2022-09-21T02:58:53;98893.09;;;8.13;64.06
64717;BME280;51146;50.274;19.000;2022-09-21T03:01:24;98907.31;;;8.15;64.11
64717;BME280;51146;50.274;19.000;2022-09-21T03:03:52;98908.31;;;8.14;64.12
64717;BME280;51146;50.274;19.000;2022-09-21T03:06:19;98911.94;;;8.13;63.97
64717;BME280;51146;50.274;19.000;2022-09-21T03:08:46;98917.31;;;8.13;64.11
64717;BME280;51146;50.274;19.000;2022-09-21T03:11:19;98918.09;;;8.15;64.11
64717;BME280;51146;50.274;19.000;2022-09-21T03:13:45;98911.94;;;8.13;64.06
64717;BME280;51146;50.274;19.000;2022-09-21T03:16:12;98916.38;;;8.14;64.29
64717;BME280;51146;50.274;19.000;2022-09-21T03:18:39;98922.69;;;8.13;64.05
64717;BME280;51146;50.274;19.000;2022-09-21T03:21:07;98922.59;;;8.14;64.10
64717;BME280;51146;50.274;19.000;2022-09-21T03:23:38;98919.81;;;8.16;64.16
64717;BME280;51146;50.274;19.000;2022-09-21T03:26:05;98919.25;;;8.11;64.01
64717;BME280;51146;50.274;19.000;2022-09-21T03:28:31;98929.41;;;8.06;64.17
64717;BME280;51146;50.274;19.000;2022-09-21T03:30:58;98931.41;;;8.02;63.86
64717;BME280;51146;50.274;19.000;2022-09-21T03:33:26;98933.56;;;7.97;64.03
64717;BME280;51146;50.274;19.000;2022-09-21T03:35:52;98935.56;;;7.93;64.12
64717;BME280;51146;50.274;19.000;2022-09-21T03:38:20;98943.81;;;7.90;64.02
64717;BME280;51146;50.274;19.000;2022-09-21T03:40:48;98949.09;;;7.92;63.85
64717;BME280;51146;50.274;19.000;2022-09-21T03:43:16;98952.75;;;7.91;63.82
64717;BME280;51146;50.274;19.000;2022-09-21T03:45:43;98951.16;;;7.87;63.96
64717;BME280;51146;50.274;19.000;2022-09-21T03:48:11;98948.59;;;7.85;63.96
64717;BME280;51146;50.274;19.000;2022-09-21T03:50:38;98946.06;;;7.82;63.81
64717;BME280;51146;50.274;19.000;2022-09-21T03:53:06;98945.38;;;7.78;63.67
64717;BME280;51146;50.274;19.000;2022-09-21T03:55:33;98945.69;;;7.74;64.06
64717;BME280;51146;50.274;19.000;2022-09-21T03:58:01;98947.59;;;7.72;64.30
64717;BME280;51146;50.274;19.000;2022-09-21T04:00:28;98943.94;;;7.73;64.23
64717;BME280;51146;50.274;19.000;2022-09-21T04:02:55;98942.03;;;7.75;64.15
64717;BME280;51146;50.274;19.000;2022-09-21T04:05:22;98940.88;;;7.79;64.20
64717;BME280;51146;50.274;19.000;2022-09-21T04:07:49;98943.47;;;7.81;64.07
64717;BME280;51146;50.274;19.000;2022-09-21T04:10:18;98942.78;;;7.77;64.37
64717;BME280;51146;50.274;19.000;2022-09-21T04:12:46;98942.03;;;7.75;64.38
64717;BME280;51146;50.274;19.000;2022-09-21T04:15:15;98939.25;;;7.76;64.53
64717;BME280;51146;50.274;19.000;2022-09-21T04:17:43;98940.00;;;7.78;64.53
64717;BME280;51146;50.274;19.000;2022-09-21T04:20:10;98948.00;;;7.80;64.42
64717;BME280;51146;50.274;19.000;2022-09-21T04:22:37;98945.22;;;7.82;64.63
64717;BME280;51146;50.274;19.000;2022-09-21T04:25:09;98943.22;;;7.85;64.60
64717;BME280;51146;50.274;19.000;2022-09-21T04:27:36;98948.38;;;7.88;64.44
64717;BME280;51146;50.274;19.000;2022-09-21T04:30:04;98950.84;;;7.93;64.27
64717;BME280;51146;50.274;19.000;2022-09-21T04:32:31;98951.63;;;7.95;64.30
64717;BME280;51146;50.274;19.000;2022-09-21T04:34:58;98947.00;;;7.97;64.48
64717;BME280;51146;50.274;19.000;2022-09-21T04:37:24;98946.13;;;7.96;64.26
64717;BME280;51146;50.274;19.000;2022-09-21T04:39:51;98960.44;;;7.97;64.23
64717;BME280;51146;50.274;19.000;2022-09-21T04:42:18;98955.94;;;7.98;64.30
64717;BME280;51146;50.274;19.000;2022-09-21T04:44:44;98955.84;;;7.99;64.65
64717;BME280;51146;50.274;19.000;2022-09-21T04:47:11;98954.00;;;8.00;64.52
64717;BME280;51146;50.274;19.000;2022-09-21T04:49:38;98958.44;;;8.01;64.36
64717;BME280;51146;50.274;19.000;2022-09-21T04:52:05;98956.69;;;8.00;64.58
64717;BME280;51146;50.274;19.000;2022-09-21T04:54:32;98956.53;;;8.03;64.51
64717;BME280;51146;50.274;19.000;2022-09-21T04:57:00;98961.22;;;7.99;64.47
64717;BME280;51146;50.274;19.000;2022-09-21T04:59:27;98960.53;;;7.95;64.55
64717;BME280;51146;50.274;19.000;2022-09-21T05:01:54;98962.16;;;7.98;64.60
64717;BME280;51146;50.274;19.000;2022-09-21T05:04:20;98961.00;;;8.02;64.46
64717;BME280;51146;50.274;19.000;2022-09-21T05:06:47;98965.28;;;8.06;64.37
64717;BME280;51146;50.274;19.000;2022-09-21T05:09:14;98967.00;;;8.07;64.73
64717;BME280;51146;50.274;19.000;2022-09-21T05:11:59;98963.53;;;8.05;64.57
64717;BME280;51146;50.274;19.000;2022-09-21T05:14:26;98969.69;;;8.07;64.78
64717;BME280;51146;50.274;19.000;2022-09-21T05:16:52;98966.22;;;8.05;64.62
64717;BME280;51146;50.274;19.000;2022-09-21T05:19:19;98978.22;;;8.00;64.40
64717;BME280;51146;50.274;19.000;2022-09-21T05:21:46;98974.75;;;7.98;64.38
64717;BME280;51146;50.274;19.000;2022-09-21T05:24:13;98969.56;;;7.94;64.62
64717;BME280;51146;50.274;19.000;2022-09-21T05:26:41;98982.13;;;7.94;64.59
64717;BME280;51146;50.274;19.000;2022-09-21T05:29:08;98978.38;;;7.96;64.77
64717;BME280;51146;50.274;19.000;2022-09-21T05:37:22;98985.44;;;7.99;64.74
64717;BME280;51146;50.274;19.000;2022-09-21T05:39:55;98985.50;;;7.98;64.87
64717;BME280;51146;50.274;19.000;2022-09-21T05:42:22;98993.50;;;7.99;64.74
64717;BME280;51146;50.274;19.000;2022-09-21T05:44:49;98993.50;;;7.99;64.95
64717;BME280;51146;50.274;19.000;2022-09-21T05:50:32;98988.88;;;8.01;64.90
64717;BME280;51146;50.274;19.000;2022-09-21T05:58:24;98995.50;;;8.10;65.03
64717;BME280;51146;50.274;19.000;2022-09-21T06:01:10;98987.28;;;8.13;64.98
64717;BME280;51146;50.274;19.000;2022-09-21T06:03:41;98985.34;;;8.15;64.84
64717;BME280;51146;50.274;19.000;2022-09-21T06:06:08;98994.09;;;8.19;65.02
64717;BME280;51146;50.274;19.000;2022-09-21T06:08:35;98997.38;;;8.24;65.20
64717;BME280;51146;50.274;19.000;2022-09-21T06:11:02;98997.94;;;8.29;65.07
64717;BME280;51146;50.274;19.000;2022-09-21T06:13:29;99004.00;;;8.32;65.01
64717;BME280;51146;50.274;19.000;2022-09-21T06:15:56;99002.00;;;8.36;64.99
64717;BME280;51146;50.274;19.000;2022-09-21T06:18:26;99003.44;;;8.42;65.01
64717;BME280;51146;50.274;19.000;2022-09-21T06:20:53;99004.22;;;8.44;64.99
64717;BME280;51146;50.274;19.000;2022-09-21T06:23:20;98998.72;;;8.45;64.79
64717;BME280;51146;50.274;19.000;2022-09-21T06:25:51;99007.88;;;8.43;64.82
64717;BME280;51146;50.274;19.000;2022-09-21T06:28:24;99006.13;;;8.42;64.76
64717;BME280;51146;50.274;19.000;2022-09-21T06:30:52;99000.06;;;8.38;64.83
64717;BME280;51146;50.274;19.000;2022-09-21T06:33:20;98998.44;;;8.35;64.69
64717;BME280;51146;50.274;19.000;2022-09-21T06:35:52;98999.97;;;8.40;64.79
64717;BME280;51146;50.274;19.000;2022-09-21T06:38:20;98996.81;;;8.47;64.79
64717;BME280;51146;50.274;19.000;2022-09-21T06:40:47;99009.97;;;8.52;64.62
64717;BME280;51146;50.274;19.000;2022-09-21T06:43:13;99006.50;;;8.50;64.62
64717;BME280;51146;50.274;19.000;2022-09-21T06:45:40;99011.81;;;8.51;64.63
64717;BME280;51146;50.274;19.000;2022-09-21T06:48:07;99015.00;;;8.58;64.69
64717;BME280;51146;50.274;19.000;2022-09-21T06:50:34;99012.47;;;8.69;64.66
64717;BME280;51146;50.274;19.000;2022-09-21T06:53:02;99023.72;;;8.76;64.33
64717;BME280;51146;50.274;19.000;2022-09-21T06:55:30;99015.94;;;8.86;64.29
64717;BME280;51146;50.274;19.000;2022-09-21T06:58:01;99021.69;;;8.94;64.19
64717;BME280;51146;50.274;19.000;2022-09-21T07:00:29;99015.03;;;9.00;64.02
64717;BME280;51146;50.274;19.000;2022-09-21T07:02:57;99028.50;;;9.00;64.12
64717;BME280;51146;50.274;19.000;2022-09-21T07:05:24;99032.84;;;9.02;63.89
64717;BME280;51146;50.274;19.000;2022-09-21T07:07:55;99033.63;;;9.04;63.74
64717;BME280;51146;50.274;19.000;2022-09-21T07:10:23;99033.63;;;9.04;63.60
64717;BME280;51146;50.274;19.000;2022-09-21T07:12:51;99036.59;;;9.00;63.60
64717;BME280;51146;50.274;19.000;2022-09-21T07:15:17;99042.75;;;9.02;63.36
64717;BME280;51146;50.274;19.000;2022-09-21T07:17:44;99039.94;;;9.03;63.58
64717;BME280;51146;50.274;19.000;2022-09-21T07:20:17;99041.88;;;9.01;63.18
64717;BME280;51146;50.274;19.000;2022-09-21T07:22:44;99045.56;;;9.00;63.39
64717;BME280;51146;50.274;19.000;2022-09-21T07:25:11;99041.88;;;9.01;63.52
64717;BME280;51146;50.274;19.000;2022-09-21T07:27:37;99040.72;;;9.05;63.61
64717;BME280;51146;50.274;19.000;2022-09-21T07:30:05;99043.22;;;9.08;63.69
64717;BME280;51146;50.274;19.000;2022-09-21T07:32:32;99042.63;;;9.18;63.61
64717;BME280;51146;50.274;19.000;2022-09-21T07:34:59;99042.00;;;9.27;63.30
64717;BME280;51146;50.274;19.000;2022-09-21T07:37:26;99041.66;;;9.33;63.35
64717;BME280;51146;50.274;19.000;2022-09-21T07:39:53;99043.19;;;9.37;63.12
64717;BME280;51146;50.274;19.000;2022-09-21T07:42:20;99045.03;;;9.37;63.05
64717;BME280;51146;50.274;19.000;2022-09-21T07:44:48;99053.88;;;9.39;63.00
64717;BME280;51146;50.274;19.000;2022-09-21T07:47:16;99052.91;;;9.40;62.87
64717;BME280;51146;50.274;19.000;2022-09-21T07:49:43;99054.66;;;9.41;62.59
64717;BME280;51146;50.274;19.000;2022-09-21T07:52:12;99053.88;;;9.39;62.72
64717;BME280;51146;50.274;19.000;2022-09-21T07:54:40;99062.06;;;9.37;62.48
64717;BME280;51146;50.274;19.000;2022-09-21T07:57:07;99062.16;;;9.36;62.25
64717;BME280;51146;50.274;19.000;2022-09-21T07:59:53;99068.81;;;9.30;62.44
64717;BME280;51146;50.274;19.000;2022-09-21T08:02:23;99068.50;;;9.34;62.44
64717;BME280;51146;50.274;19.000;2022-09-21T08:04:50;99069.06;;;9.40;62.32
64717;BME280;51146;50.274;19.000;2022-09-21T08:07:17;99076.75;;;9.46;62.13
64717;BME280;51146;50.274;19.000;2022-09-21T08:09:44;99068.66;;;9.46;61.87
64717;BME280;51146;50.274;19.000;2022-09-21T08:12:16;99073.13;;;9.47;61.90
64717;BME280;51146;50.274;19.000;2022-09-21T08:14:46;99067.41;;;9.51;62.02
64717;BME280;51146;50.274;19.000;2022-09-21T08:17:13;99073.94;;;9.62;61.95
64717;BME280;51146;50.274;19.000;2022-09-21T08:19:40;99083.47;;;9.67;62.04
64717;BME280;51146;50.274;19.000;2022-09-21T08:22:07;99079.69;;;9.70;61.90
64717;BME280;51146;50.274;19.000;2022-09-21T08:24:34;99074.28;;;9.70;61.84
64717;BME280;51146;50.274;19.000;2022-09-21T08:27:00;99068.69;;;9.73;61.86
64717;BME280;51146;50.274;19.000;2022-09-21T08:29:27;99076.38;;;9.79;62.02
64717;BME280;51146;50.274;19.000;2022-09-21T08:31:55;99076.81;;;9.86;61.89
64717;BME280;51146;50.274;19.000;2022-09-21T08:34:21;99074.59;;;9.92;61.69
64717;BME280;51146;50.274;19.000;2022-09-21T08:36:49;99078.81;;;9.97;61.82
64717;BME280;51146;50.274;19.000;2022-09-21T08:39:20;99085.91;;;9.98;61.80
64717;BME280;51146;50.274;19.000;2022-09-21T08:44:47;99086.81;;;9.98;61.69
64717;BME280;51146;50.274;19.000;2022-09-21T08:47:28;99080.31;;;10.01;61.53
64717;BME280;51146;50.274;19.000;2022-09-21T08:50:02;99080.00;;;10.05;61.44
64717;BME280;51146;50.274;19.000;2022-09-21T08:52:30;99076.34;;;10.06;61.79
64717;BME280;51146;50.274;19.000;2022-09-21T08:55:16;99074.72;;;10.04;61.52
64717;BME280;51146;50.274;19.000;2022-09-21T08:57:43;99080.66;;;10.09;61.73
64717;BME280;51146;50.274;19.000;2022-09-21T09:00:17;99081.47;;;10.24;61.77
64717;BME280;51146;50.274;19.000;2022-09-21T09:21:35;99077.94;;;11.13;59.62
64717;BME280;51146;50.274;19.000;2022-09-21T09:24:11;99078.03;;;11.12;59.30
64717;BME280;51146;50.274;19.000;2022-09-21T09:27:01;99082.91;;;11.06;59.20
64717;BME280;51146;50.274;19.000;2022-09-21T09:32:16;99089.31;;;11.05;58.99
64717;BME280;51146;50.274;19.000;2022-09-21T09:35:00;99075.78;;;11.05;58.95
64717;BME280;51146;50.274;19.000;2022-09-21T09:37:33;99079.25;;;11.07;59.23
64717;BME280;51146;50.274;19.000;2022-09-21T09:40:04;99076.19;;;11.12;58.90
64717;BME280;51146;50.274;19.000;2022-09-21T09:42:45;99078.34;;;11.20;59.00
64717;BME280;51146;50.274;19.000;2022-09-21T09:50:36;99078.75;;;11.63;58.62
64717;BME280;51146;50.274;19.000;2022-09-21T09:55:41;99086.09;;;11.74;57.50
64717;BME280;51146;50.274;19.000;2022-09-21T09:58:34;99086.00;;;11.76;57.38
64717;BME280;51146;50.274;19.000;2022-09-21T10:01:02;99083.97;;;11.91;58.04
64717;BME280;51146;50.274;19.000;2022-09-21T10:03:29;99077.03;;;12.11;57.67
64717;BME280;51146;50.274;19.000;2022-09-21T10:05:56;99083.88;;;12.27;57.60
64717;BME280;51146;50.274;19.000;2022-09-21T10:10:53;99083.47;;;12.56;56.50
64717;BME280;51146;50.274;19.000;2022-09-21T10:13:27;99069.09;;;12.78;56.64
64717;BME280;51146;50.274;19.000;2022-09-21T10:16:02;99062.94;;;13.44;56.26
64717;BME280;51146;50.274;19.000;2022-09-21T10:18:51;99062.75;;;14.33;55.23
64717;BME280;51146;50.274;19.000;2022-09-21T10:21:24;99057.66;;;15.53;53.02
64717;BME280;51146;50.274;19.000;2022-09-21T10:24:22;99059.03;;;16.27;49.58
64717;BME280;51146;50.274;19.000;2022-09-21T10:26:53;99060.13;;;16.92;49.13
64717;BME280;51146;50.274;19.000;2022-09-21T10:32:01;99058.06;;;18.23;45.34
64717;BME280;51146;50.274;19.000;2022-09-21T10:34:33;99050.56;;;18.43;44.19
64717;BME280;51146;50.274;19.000;2022-09-21T10:37:22;99051.56;;;18.24;43.46
64717;BME280;51146;50.274;19.000;2022-09-21T10:39:48;99058.06;;;17.87;43.36
64717;BME280;51146;50.274;19.000;2022-09-21T10:42:17;99053.25;;;17.53;43.50
64717;BME280;51146;50.274;19.000;2022-09-21T10:44:46;99048.25;;;17.11;43.22
64717;BME280;51146;50.274;19.000;2022-09-21T10:47:36;99057.25;;;16.84;43.41
64717;BME280;51146;50.274;19.000;2022-09-21T10:50:21;99057.81;;;17.81;43.96
64717;BME280;51146;50.274;19.000;2022-09-21T10:52:50;99041.78;;;18.58;42.45
64717;BME280;51146;50.274;19.000;2022-09-21T10:55:23;99045.75;;;18.89;40.95
64717;BME280;51146;50.274;19.000;2022-09-21T10:57:51;99041.50;;;19.64;40.19
64717;BME280;51146;50.274;19.000;2022-09-21T11:02:51;99041.31;;;20.24;37.77
64717;BME280;51146;50.274;19.000;2022-09-21T11:05:24;99045.38;;;20.12;37.59
64717;BME280;51146;50.274;19.000;2022-09-21T11:07:55;99045.97;;;19.65;37.48
64717;BME280;51146;50.274;19.000;2022-09-21T11:10:29;99044.56;;;19.18;37.85
64717;BME280;51146;50.274;19.000;2022-09-21T11:24:23;99035.69;;;19.67;36.99
64717;BME280;51146;50.274;19.000;2022-09-21T11:27:14;99037.16;;;19.96;37.29
64717;BME280;51146;50.274;19.000;2022-09-21T11:38:11;99038.69;;;19.05;36.84
64717;BME280;51146;50.274;19.000;2022-09-21T11:43:15;99037.13;;;18.50;37.27
64717;BME280;51146;50.274;19.000;2022-09-21T11:45:56;99035.66;;;18.20;37.33
64717;BME280;51146;50.274;19.000;2022-09-21T11:57:51;99039.63;;;17.16;39.66
64717;BME280;51146;50.274;19.000;2022-09-21T12:00:21;99044.22;;;17.15;40.20
64717;BME280;51146;50.274;19.000;2022-09-21T12:08:44;99029.06;;;16.93;40.30
64717;BME280;51146;50.274;19.000;2022-09-21T12:19:16;99028.06;;;16.28;41.33
64717;BME280;51146;50.274;19.000;2022-09-21T12:22:00;99020.75;;;16.18;41.58
64717;BME280;51146;50.274;19.000;2022-09-21T12:24:36;99019.91;;;16.18;41.58
64717;BME280;51146;50.274;19.000;2022-09-21T12:30:23;99010.59;;;18.06;40.90
64717;BME280;51146;50.274;19.000;2022-09-21T12:35:47;99006.38;;;21.07;36.78
64717;BME280;51146;50.274;19.000;2022-09-21T12:46:24;98983.41;;;25.65;29.52
64717;BME280;51146;50.274;19.000;2022-09-21T12:48:55;98984.44;;;25.57;28.42
64717;BME280;51146;50.274;19.000;2022-09-21T12:51:33;98988.47;;;25.55;27.78
64717;BME280;51146;50.274;19.000;2022-09-21T12:54:18;98992.56;;;25.17;27.70
64717;BME280;51146;50.274;19.000;2022-09-21T13:00:12;98972.81;;;24.35;28.64
64717;BME280;51146;50.274;19.000;2022-09-21T13:02:45;98982.91;;;23.85;28.66
64717;BME280;51146;50.274;19.000;2022-09-21T13:13:00;98983.78;;;21.36;30.49
64717;BME280;51146;50.274;19.000;2022-09-21T13:15:31;98983.06;;;20.95;31.42
64717;BME280;51146;50.274;19.000;2022-09-21T13:18:01;98981.50;;;20.53;31.50
64717;BME280;51146;50.274;19.000;2022-09-21T13:20:38;98978.75;;;20.03;32.68
64717;BME280;51146;50.274;19.000;2022-09-21T13:23:16;98982.91;;;19.57;32.85
64717;BME280;51146;50.274;19.000;2022-09-21T13:25:48;98986.06;;;19.19;33.78
64717;BME280;51146;50.274;19.000;2022-09-21T13:28:19;98979.19;;;18.81;34.16
64717;BME280;51146;50.274;19.000;2022-09-21T13:36:35;98972.81;;;18.02;35.70
64717;BME280;51146;50.274;19.000;2022-09-21T13:41:35;98966.66;;;17.64;36.40
64717;BME280;51146;50.274;19.000;2022-09-21T13:44:42;98969.94;;;17.40;36.91
64717;BME280;51146;50.274;19.000;2022-09-21T13:47:09;98971.63;;;17.23;37.01
64717;BME280;51146;50.274;19.000;2022-09-21T13:49:47;98966.13;;;17.05;37.51
64717;BME280;51146;50.274;19.000;2022-09-21T13:57:26;98974.25;;;16.40;38.88
64717;BME280;51146;50.274;19.000;2022-09-21T14:05:34;98982.13;;;15.35;41.67
64717;BME280;51146;50.274;19.000;2022-09-21T14:11:06;98981.47;;;14.72;43.04
64717;BME280;51146;50.274;19.000;2022-09-21T14:13:40;98985.09;;;14.51;43.85
64717;BME280;51146;50.274;19.000;2022-09-21T14:27:36;98966.81;;;13.58;47.92
64717;BME280;51146;50.274;19.000;2022-09-21T14:30:23;98964.84;;;13.49;48.09
64717;BME280;51146;50.274;19.000;2022-09-21T14:35:32;98965.16;;;13.34;48.68
64717;BME280;51146;50.274;19.000;2022-09-21T14:38:02;98969.50;;;13.25;49.23
64717;BME280;51146;50.274;19.000;2022-09-21T14:40:38;98971.97;;;13.17;49.61
64717;BME280;51146;50.274;19.000;2022-09-21T14:43:11;98955.94;;;13.14;50.27
64717;BME280;51146;50.274;19.000;2022-09-21T14:46:00;98968.28;;;13.18;50.41
64717;BME280;51146;50.274;19.000;2022-09-21T14:59:14;98964.31;;;13.34;48.99
64717;BME280;51146;50.274;19.000;2022-09-21T15:02:13;98978.66;;;13.13;48.46
64717;BME280;51146;50.274;19.000;2022-09-21T15:05:07;98977.31;;;12.96;48.62
64717;BME280;51146;50.274;19.000;2022-09-21T15:07:48;98976.81;;;12.80;48.45
64717;BME280;51146;50.274;19.000;2022-09-21T15:18:49;98983.38;;;12.08;49.11
64717;BME280;51146;50.274;19.000;2022-09-21T15:21:26;98986.31;;;11.94;49.60
64717;BME280;51146;50.274;19.000;2022-09-21T15:23:55;98983.31;;;11.85;49.64
64717;BME280;51146;50.274;19.000;2022-09-21T15:26:28;98987.97;;;11.83;49.88
64717;BME280;51146;50.274;19.000;2022-09-21T15:28:59;98998.31;;;11.78;50.20
64717;BME280;51146;50.274;19.000;2022-09-21T15:31:40;98993.88;;;11.77;50.28
64717;BME280;51146;50.274;19.000;2022-09-21T15:34:08;98994.88;;;11.76;50.46
64717;BME280;51146;50.274;19.000;2022-09-21T15:36:38;99001.25;;;11.75;50.65
64717;BME280;51146;50.274;19.000;2022-09-21T15:39:15;99006.78;;;11.74;50.75
64717;BME280;51146;50.274;19.000;2022-09-21T15:41:46;99000.56;;;11.72;50.96
64717;BME280;51146;50.274;19.000;2022-09-21T15:44:20;99010.66;;;11.69;51.48
64717;BME280;51146;50.274;19.000;2022-09-21T15:46:49;99022.59;;;11.67;51.83
64717;BME280;51146;50.274;19.000;2022-09-21T15:49:18;99017.75;;;11.59;52.20
64717;BME280;51146;50.274;19.000;2022-09-21T15:51:54;99017.59;;;11.49;52.43
64717;BME280;51146;50.274;19.000;2022-09-21T15:54:40;99018.25;;;11.40;53.01
64717;BME280;51146;50.274;19.000;2022-09-21T15:57:29;99018.94;;;11.31;53.07
64717;BME280;51146;50.274;19.000;2022-09-21T16:00:21;99015.31;;;11.19;53.66
64717;BME280;51146;50.274;19.000;2022-09-21T16:02:56;99020.94;;;11.16;53.58
64717;BME280;51146;50.274;19.000;2022-09-21T16:05:24;99016.84;;;11.10;53.92
64717;BME280;51146;50.274;19.000;2022-09-21T16:08:15;99014.47;;;11.06;54.57
64717;BME280;51146;50.274;19.000;2022-09-21T16:10:43;99025.41;;;11.04;54.49
64717;BME280;51146;50.274;19.000;2022-09-21T16:13:20;99022.16;;;10.99;54.59
64717;BME280;51146;50.274;19.000;2022-09-21T16:16:08;99021.66;;;10.94;54.58
64717;BME280;51146;50.274;19.000;2022-09-21T16:18:53;99020.16;;;10.90;54.98
64717;BME280;51146;50.274;19.000;2022-09-21T16:21:30;99022.41;;;10.83;55.20
64717;BME280;51146;50.274;19.000;2022-09-21T16:24:19;99022.00;;;10.77;55.37
64717;BME280;51146;50.274;19.000;2022-09-21T16:27:01;99025.75;;;10.74;55.63
64717;BME280;51146;50.274;19.000;2022-09-21T16:29:39;99032.72;;;10.65;55.99
64717;BME280;51146;50.274;19.000;2022-09-21T16:34:40;99032.13;;;10.47;55.73
64717;BME280;51146;50.274;19.000;2022-09-21T16:39:54;99036.31;;;10.26;56.84
64717;BME280;51146;50.274;19.000;2022-09-21T16:42:23;99041.41;;;10.18;56.93
64717;BME280;51146;50.274;19.000;2022-09-21T16:44:53;99045.28;;;10.14;57.38
64717;BME280;51146;50.274;19.000;2022-09-21T16:47:21;99055.41;;;10.10;57.53
64717;BME280;51146;50.274;19.000;2022-09-21T16:49:56;99050.22;;;10.07;57.94
64717;BME280;51146;50.274;19.000;2022-09-21T16:52:27;99047.63;;;10.05;57.99
64717;BME280;51146;50.274;19.000;2022-09-21T16:54:54;99047.75;;;10.04;58.01